Meteo Giornale » Osservazioni meteo Svizzera » Payerne

ore: 01:20 - Osservazioni Meteo Payerne
Lat. 46° 49' N Lon. 6° 57' E Alt. 490 metri s.l.m.

sereno Europe/Zurich

7 °C

Sereno

Temp. 24 Ore

5 °C

19 °C

Nord

1.8 Km/h

Dew point 6 °C

Umidità 93 %

Visibilità  10 Km

Il sole sorge alle ore 07:55

Il sole tramonta alle ore 18:37

Data e Ora Cielo e Fenomeni T °C DP °C Um. % Pres. hPa Vis. km Vento km/h
Oggi h: 01:20 sereno Sereno 7 6 93 1024 10 N 1.8
Oggi h: 00:50 sereno Sereno 7 6 93 1024 10 N 0
Oggi h: 00:20 sereno Sereno 7 6 93 1025 10 N 1.8
Ieri h: 23:50 sereno Sereno 8 7 93 1025 10 N 3.7
Ieri h: 23:20 sereno Sereno 8 7 93 1025 10 N 0
Ieri h: 22:50 sereno Sereno 9 7 87 1025 10 N 1.8
Ieri h: 22:20 sereno Sereno 9 7 87 1025 10 N 3.7
Ieri h: 21:50 sereno Sereno 10 8 87 1025 10 N 3.7
Ieri h: 21:20 sereno Sereno 10 8 87 1025 10 N 3.7
Ieri h: 20:50 sereno Sereno 10 9 93 1025 10 N 3.7
Ieri h: 20:20 sereno Sereno 11 8 81 1025 10 N 3.7
Ieri h: 19:50 sereno Sereno 11 9 87 1025 10 N 0
Ieri h: 19:20 nuvoloso_piovaschi Debole Rovescio di Pioggia 14 9 71 1025 10 N 3.7
Ieri h: 18:50 nuvoloso_piovaschi Debole Rovescio di Pioggia 15 10 72 1024 10 N 3.7
Ieri h: 18:20 nuvoloso_piovaschi Debole Rovescio di Pioggia 16 11 72 1024 10 N 1.8
Ieri h: 17:20 sereno Sereno 18 10 59 1024 10 N 1.8
Ieri h: 16:50 sereno Sereno 19 10 55 1025 10 N 1.8
Ieri h: 16:20 sereno Sereno 19 10 55 1025 10 N 0
Ieri h: 15:50 sereno Sereno 19 10 55 1025 10 N 0
Ieri h: 15:20 sereno Sereno 18 10 59 1025 10 N 0
Ieri h: 14:50 sereno Sereno 17 10 63 1026 10 N 3.7
Ieri h: 14:20 sereno Sereno 17 10 63 1026 10 N 3.7
Ieri h: 13:50 sereno Sereno 16 9 63 1026 10 N 1.8
Ieri h: 13:20 sereno Sereno 15 9 67 1027 10 N 1.8
Ieri h: 12:50 poco_nuvoloso Poco Nuvoloso 14 9 71 1027 10 N 1.8
Ieri h: 12:20 nuvoloso Nuvoloso 13 8 71 1028 10 N 1.8
Ieri h: 11:50 poco_nuvoloso Poco Nuvoloso 12 9 81 1028 10 N 1.8
Ieri h: 11:20 nuvoloso Nuvoloso 10 8 87 1028 10 N 1.8
Ieri h: 10:50 molto_nuvoloso Molto Nuvoloso 10 8 87 1028 10 N 0
Ieri h: 10:20 nuvoloso Nuvoloso 10 7 81 1028 10 N 0
Ieri h: 09:50 coperto Coperto 9 7 87 1028 10 N 0
Ieri h: 09:20 sereno Sereno 8 7 93 1028 10 N 0
Ieri h: 08:50 sereno Sereno 8 6 87 1027 10 N 0
Ieri h: 08:20 sereno Sereno 7 6 93 1027 10 N 0
Ieri h: 07:50 molto_nuvoloso Molto Nuvoloso 7 6 93 1027 9 N 0
Ieri h: 07:20 molto_nuvoloso Molto Nuvoloso 7 6 93 1027 10 N 0
Ieri h: 06:20 molto_nuvoloso Molto Nuvoloso 6 5 93 1027 8 N 0
Ieri h: 05:50 molto_nuvoloso Molto Nuvoloso 6 5 93 1027 6 N 0
Ieri h: 05:20 nuvoloso Nuvoloso 6 5 93 1027 8 N 3.7
Ieri h: 04:20 nuvoloso Nuvoloso 5 5 100 1027 5 N 0
Ieri h: 03:50 molto_nuvoloso Molto Nuvoloso 5 5 100 1027 5 N 1.8
Ieri h: 03:20 foschia Foschia 5 5 100 1027 6 N 0
Ieri h: 02:50 sereno Sereno 5 5 100 1027 4 N 3.7
Ieri h: 02:20 poco_nuvoloso Poco Nuvoloso 6 5 93 1027 6 N 0
Ieri h: 01:50 nuvoloso Nuvoloso 7 7 100 1027 10 N 1.8